New Century, Kansas
Current Conditions -  °F | °C
As of 10:53 AM on Saturday 22 Nov 2014 (Local Time) from KIXD Reporting Station
Haze Haze  
Wind Chill: 13°   Ceiling: 500
Heat Index: 13°   Visibility: 2mi
Dew Point: 12°   Wind: 13mph
Humidity: 96%   Direction: 180°S
Pressure: 29.94"   Gusts: NA
Location:  38.81°N, 94.93°W
Report Text: KIXD 221653Z 18011KT 2SM BR OVC005 13/12 A2994 RMK AO2 SLP137 T01280122
Loading
Personal Weather Stations






























Interactive Weather Map New forecast layout! Learn more

10-Day Weather Forecast

Advertisements
Track Severe Weather on mobile